This is the latest recevied weather packets stored in our database for station/object KJ4UBX-11. If no packets are shown the sender has not sent any weather packets the latest 10 day(s).
| Time | Temp. | Humidity | Pressure | Rain* | Wind** | Luminosity | Snow |
|---|---|---|---|---|---|---|---|
| 1778109095 | 15° C | 93% | 1004 hPa | - | - | - | - |
| 1778108513 | 15° C | 96% | 1004.1 hPa | - | - | - | - |
| 1778107930 | 15.56° C | 86% | 1004.2 hPa | - | - | - | - |
| 1778107346 | 15° C | 96% | 1004.3 hPa | - | - | - | - |
| 1778106763 | 15° C | 99% | 1004.4 hPa | - | - | - | - |
| 1778106181 | 15.56° C | 98% | 1004.5 hPa | - | - | - | - |
| 1778105598 | 15.56° C | 98% | 1004.5 hPa | - | - | - | - |
| 1778105014 | 15.56° C | 96% | 1004.6 hPa | - | - | - | - |
| 1778104432 | 15.56° C | 98% | 1004.5 hPa | - | - | - | - |
| 1778103849 | 15.56° C | 100% | 1004.5 hPa | - | - | - | - |
| 1778103265 | 16.11° C | 95% | 1004.6 hPa | - | - | - | - |
| 1778102683 | 16.11° C | 93% | 1004.7 hPa | - | - | - | - |
| 1778102099 | 15.56° C | 90% | 1004.8 hPa | - | - | - | - |
| 1778101515 | 15.56° C | 95% | 1004.9 hPa | - | - | - | - |
| 1778100933 | 15.56° C | 94% | 1005 hPa | - | - | - | - |
| 1778100349 | 15.56° C | 94% | 1004.8 hPa | - | - | - | - |
| 1778099765 | 16.11° C | 93% | 1005 hPa | - | - | - | - |
| 1778099183 | 16.11° C | 93% | 1004.9 hPa | - | - | - | - |
| 1778098600 | 16.11° C | 93% | 1004.7 hPa | - | - | - | - |
| 1778098017 | 16.67° C | 93% | 1005 hPa | - | - | - | - |
| 1778097435 | 16.11° C | 94% | 1005.2 hPa | - | - | - | - |
| 1778096851 | 16.67° C | 88% | 1005.3 hPa | - | - | - | - |
| 1778096268 | 16.67° C | 86% | 1005.6 hPa | - | - | - | - |
| 1778095685 | 16.67° C | 89% | 1005.4 hPa | - | - | - | - |
| 1778095103 | 16.67° C | 87% | 1005.4 hPa | - | - | - | - |
* Rain since midnight (hover to see other rain measurements)
** Current wind speed in m/s (hover to see current wind gust speed)